sensor_id;sensor_type;location;lat;lon;timestamp;P1;durP1;ratioP1;P2;durP2;ratioP2
6452;SDS011;3259;51.080;13.712;2022-07-01T00:00:04;9.98;;;7.55;;
6452;SDS011;3259;51.080;13.712;2022-07-01T00:02:53;8.48;;;7.57;;
6452;SDS011;3259;51.080;13.712;2022-07-01T00:05:43;8.43;;;7.53;;
6452;SDS011;3259;51.080;13.712;2022-07-01T00:08:32;10.00;;;7.75;;
6452;SDS011;3259;51.080;13.712;2022-07-01T00:11:20;9.93;;;7.50;;
6452;SDS011;3259;51.080;13.712;2022-07-01T00:14:09;7.35;;;6.75;;
6452;SDS011;3259;51.080;13.712;2022-07-01T00:16:58;8.55;;;7.47;;
6452;SDS011;3259;51.080;13.712;2022-07-01T00:19:46;11.00;;;6.90;;
6452;SDS011;3259;51.080;13.712;2022-07-01T00:22:37;13.82;;;8.05;;
6452;SDS011;3259;51.080;13.712;2022-07-01T00:25:26;9.98;;;8.55;;
6452;SDS011;3259;51.080;13.712;2022-07-01T00:28:15;8.10;;;7.30;;
6452;SDS011;3259;51.080;13.712;2022-07-01T00:31:03;9.60;;;7.25;;
6452;SDS011;3259;51.080;13.712;2022-07-01T00:33:52;7.03;;;6.35;;
6452;SDS011;3259;51.080;13.712;2022-07-01T00:36:40;9.00;;;7.22;;
6452;SDS011;3259;51.080;13.712;2022-07-01T00:39:30;11.77;;;7.70;;
6452;SDS011;3259;51.080;13.712;2022-07-01T00:42:21;9.10;;;8.05;;
6452;SDS011;3259;51.080;13.712;2022-07-01T00:45:09;9.65;;;8.00;;
6452;SDS011;3259;51.080;13.712;2022-07-01T00:47:58;9.45;;;7.85;;
6452;SDS011;3259;51.080;13.712;2022-07-01T00:50:47;7.88;;;7.07;;
6452;SDS011;3259;51.080;13.712;2022-07-01T00:53:36;8.82;;;6.80;;
6452;SDS011;3259;51.080;13.712;2022-07-01T00:56:26;8.00;;;7.30;;
6452;SDS011;3259;51.080;13.712;2022-07-01T00:59:14;8.02;;;6.85;;
6452;SDS011;3259;51.080;13.712;2022-07-01T01:02:03;8.00;;;6.53;;
6452;SDS011;3259;51.080;13.712;2022-07-01T01:04:53;9.45;;;7.15;;
6452;SDS011;3259;51.080;13.712;2022-07-01T01:07:41;7.53;;;6.85;;
6452;SDS011;3259;51.080;13.712;2022-07-01T01:10:30;8.30;;;7.20;;
6452;SDS011;3259;51.080;13.712;2022-07-01T01:13:20;10.50;;;7.38;;
6452;SDS011;3259;51.080;13.712;2022-07-01T01:16:15;9.15;;;7.13;;
6452;SDS011;3259;51.080;13.712;2022-07-01T01:19:05;9.18;;;7.53;;
6452;SDS011;3259;51.080;13.712;2022-07-01T01:21:55;10.93;;;7.80;;
6452;SDS011;3259;51.080;13.712;2022-07-01T01:24:44;11.45;;;7.43;;
6452;SDS011;3259;51.080;13.712;2022-07-01T01:27:34;9.65;;;7.65;;
6452;SDS011;3259;51.080;13.712;2022-07-01T01:30:23;8.95;;;7.55;;
6452;SDS011;3259;51.080;13.712;2022-07-01T01:33:12;8.82;;;7.97;;
6452;SDS011;3259;51.080;13.712;2022-07-01T01:36:00;10.13;;;7.20;;
6452;SDS011;3259;51.080;13.712;2022-07-01T01:38:50;8.18;;;7.38;;
6452;SDS011;3259;51.080;13.712;2022-07-01T01:41:39;6.70;;;6.00;;
6452;SDS011;3259;51.080;13.712;2022-07-01T01:44:27;8.07;;;7.28;;
6452;SDS011;3259;51.080;13.712;2022-07-01T01:47:16;7.07;;;6.38;;
6452;SDS011;3259;51.080;13.712;2022-07-01T01:50:05;9.27;;;8.30;;
6452;SDS011;3259;51.080;13.712;2022-07-01T01:52:54;10.45;;;7.90;;
6452;SDS011;3259;51.080;13.712;2022-07-01T01:55:44;9.07;;;6.90;;
6452;SDS011;3259;51.080;13.712;2022-07-01T01:58:32;8.45;;;7.20;;
6452;SDS011;3259;51.080;13.712;2022-07-01T02:01:21;8.20;;;6.82;;
6452;SDS011;3259;51.080;13.712;2022-07-01T02:04:10;7.65;;;6.97;;
6452;SDS011;3259;51.080;13.712;2022-07-01T02:06:58;8.30;;;7.40;;
6452;SDS011;3259;51.080;13.712;2022-07-01T02:09:47;7.93;;;7.13;;
6452;SDS011;3259;51.080;13.712;2022-07-01T02:12:37;11.70;;;7.03;;
6452;SDS011;3259;51.080;13.712;2022-07-01T02:15:25;9.35;;;6.95;;
6452;SDS011;3259;51.080;13.712;2022-07-01T02:18:14;9.07;;;6.97;;
6452;SDS011;3259;51.080;13.712;2022-07-01T02:21:03;8.38;;;7.55;;
6452;SDS011;3259;51.080;13.712;2022-07-01T02:23:56;9.85;;;7.18;;
6452;SDS011;3259;51.080;13.712;2022-07-01T02:26:45;8.90;;;6.97;;
6452;SDS011;3259;51.080;13.712;2022-07-01T02:29:35;10.27;;;7.70;;
6452;SDS011;3259;51.080;13.712;2022-07-01T02:32:23;7.88;;;6.90;;
6452;SDS011;3259;51.080;13.712;2022-07-01T02:35:12;12.00;;;7.78;;
6452;SDS011;3259;51.080;13.712;2022-07-01T02:38:01;9.63;;;7.55;;
6452;SDS011;3259;51.080;13.712;2022-07-01T02:40:51;8.98;;;6.15;;
6452;SDS011;3259;51.080;13.712;2022-07-01T02:43:39;8.02;;;7.22;;
6452;SDS011;3259;51.080;13.712;2022-07-01T02:46:29;6.80;;;6.20;;
6452;SDS011;3259;51.080;13.712;2022-07-01T02:49:18;11.13;;;6.97;;
6452;SDS011;3259;51.080;13.712;2022-07-01T02:52:06;10.77;;;6.90;;
6452;SDS011;3259;51.080;13.712;2022-07-01T02:54:55;7.43;;;6.75;;
6452;SDS011;3259;51.080;13.712;2022-07-01T02:57:43;8.05;;;6.35;;
6452;SDS011;3259;51.080;13.712;2022-07-01T03:00:32;7.53;;;6.65;;
6452;SDS011;3259;51.080;13.712;2022-07-01T03:03:22;9.10;;;6.60;;
6452;SDS011;3259;51.080;13.712;2022-07-01T03:06:10;8.00;;;6.40;;
6452;SDS011;3259;51.080;13.712;2022-07-01T03:08:59;8.25;;;6.22;;
6452;SDS011;3259;51.080;13.712;2022-07-01T03:11:47;6.72;;;6.13;;
6452;SDS011;3259;51.080;13.712;2022-07-01T03:14:36;10.90;;;6.47;;
6452;SDS011;3259;51.080;13.712;2022-07-01T03:17:26;8.57;;;6.82;;
6452;SDS011;3259;51.080;13.712;2022-07-01T03:20:16;7.05;;;6.38;;
6452;SDS011;3259;51.080;13.712;2022-07-01T03:23:05;7.50;;;6.80;;
6452;SDS011;3259;51.080;13.712;2022-07-01T03:25:54;8.40;;;6.45;;
6452;SDS011;3259;51.080;13.712;2022-07-01T03:28:42;7.43;;;6.13;;
6452;SDS011;3259;51.080;13.712;2022-07-01T03:31:31;7.10;;;6.43;;
6452;SDS011;3259;51.080;13.712;2022-07-01T03:34:19;7.53;;;6.25;;
6452;SDS011;3259;51.080;13.712;2022-07-01T03:37:10;7.82;;;6.32;;
6452;SDS011;3259;51.080;13.712;2022-07-01T03:39:59;7.32;;;5.93;;
6452;SDS011;3259;51.080;13.712;2022-07-01T03:42:47;6.75;;;5.90;;
6452;SDS011;3259;51.080;13.712;2022-07-01T03:45:36;6.95;;;6.30;;
6452;SDS011;3259;51.080;13.712;2022-07-01T03:48:26;7.97;;;6.75;;
6452;SDS011;3259;51.080;13.712;2022-07-01T03:51:14;6.95;;;6.25;;
6452;SDS011;3259;51.080;13.712;2022-07-01T03:54:04;7.25;;;6.57;;
6452;SDS011;3259;51.080;13.712;2022-07-01T03:57:11;8.38;;;6.65;;
6452;SDS011;3259;51.080;13.712;2022-07-01T03:59:59;7.90;;;5.80;;
6452;SDS011;3259;51.080;13.712;2022-07-01T04:02:48;7.20;;;6.47;;
6452;SDS011;3259;51.080;13.712;2022-07-01T04:05:37;6.53;;;5.80;;
6452;SDS011;3259;51.080;13.712;2022-07-01T04:08:25;9.48;;;6.93;;
6452;SDS011;3259;51.080;13.712;2022-07-01T04:11:15;11.93;;;6.45;;
6452;SDS011;3259;51.080;13.712;2022-07-01T04:14:04;12.27;;;7.15;;
6452;SDS011;3259;51.080;13.712;2022-07-01T04:16:53;9.07;;;6.28;;
6452;SDS011;3259;51.080;13.712;2022-07-01T04:19:41;11.13;;;6.95;;
6452;SDS011;3259;51.080;13.712;2022-07-01T04:22:30;9.77;;;7.05;;
6452;SDS011;3259;51.080;13.712;2022-07-01T04:25:22;6.97;;;6.25;;
6452;SDS011;3259;51.080;13.712;2022-07-01T04:28:12;8.93;;;6.25;;
6452;SDS011;3259;51.080;13.712;2022-07-01T04:31:00;9.90;;;6.75;;
6452;SDS011;3259;51.080;13.712;2022-07-01T04:33:49;11.23;;;6.82;;
6452;SDS011;3259;51.080;13.712;2022-07-01T04:36:38;9.95;;;6.00;;
6452;SDS011;3259;51.080;13.712;2022-07-01T04:39:26;12.15;;;5.88;;
6452;SDS011;3259;51.080;13.712;2022-07-01T04:42:15;14.70;;;6.47;;
6452;SDS011;3259;51.080;13.712;2022-07-01T04:45:08;8.90;;;6.45;;
6452;SDS011;3259;51.080;13.712;2022-07-01T04:47:57;9.57;;;5.85;;
6452;SDS011;3259;51.080;13.712;2022-07-01T04:50:46;6.65;;;5.55;;
6452;SDS011;3259;51.080;13.712;2022-07-01T04:53:34;9.63;;;6.15;;
6452;SDS011;3259;51.080;13.712;2022-07-01T04:56:23;8.13;;;6.15;;
6452;SDS011;3259;51.080;13.712;2022-07-01T04:59:13;8.93;;;6.65;;
6452;SDS011;3259;51.080;13.712;2022-07-01T05:02:04;6.68;;;6.05;;
6452;SDS011;3259;51.080;13.712;2022-07-01T05:04:58;10.23;;;6.78;;
6452;SDS011;3259;51.080;13.712;2022-07-01T05:07:46;8.27;;;6.25;;
6452;SDS011;3259;51.080;13.712;2022-07-01T05:10:35;13.98;;;6.63;;
6452;SDS011;3259;51.080;13.712;2022-07-01T05:13:23;7.70;;;6.30;;
6452;SDS011;3259;51.080;13.712;2022-07-01T05:16:12;8.75;;;5.53;;
6452;SDS011;3259;51.080;13.712;2022-07-01T05:19:02;6.65;;;5.63;;
6452;SDS011;3259;51.080;13.712;2022-07-01T05:22:09;7.47;;;6.72;;
6452;SDS011;3259;51.080;13.712;2022-07-01T05:24:58;11.02;;;5.68;;
6452;SDS011;3259;51.080;13.712;2022-07-01T05:27:47;7.63;;;5.20;;
6452;SDS011;3259;51.080;13.712;2022-07-01T05:30:35;12.07;;;6.18;;
6452;SDS011;3259;51.080;13.712;2022-07-01T05:33:24;6.75;;;5.85;;
6452;SDS011;3259;51.080;13.712;2022-07-01T05:36:14;6.05;;;5.55;;
6452;SDS011;3259;51.080;13.712;2022-07-01T05:39:03;15.13;;;5.25;;
6452;SDS011;3259;51.080;13.712;2022-07-01T05:41:52;14.23;;;5.43;;
6452;SDS011;3259;51.080;13.712;2022-07-01T05:44:40;9.82;;;5.68;;
6452;SDS011;3259;51.080;13.712;2022-07-01T05:47:29;8.98;;;4.88;;
6452;SDS011;3259;51.080;13.712;2022-07-01T05:50:17;9.05;;;5.72;;
6452;SDS011;3259;51.080;13.712;2022-07-01T05:53:08;11.55;;;5.05;;
6452;SDS011;3259;51.080;13.712;2022-07-01T05:55:57;8.63;;;5.57;;
6452;SDS011;3259;51.080;13.712;2022-07-01T05:58:45;9.75;;;5.50;;
6452;SDS011;3259;51.080;13.712;2022-07-01T06:01:34;17.45;;;6.10;;
6452;SDS011;3259;51.080;13.712;2022-07-01T06:04:22;6.72;;;5.25;;
6452;SDS011;3259;51.080;13.712;2022-07-01T06:07:11;6.55;;;5.53;;
6452;SDS011;3259;51.080;13.712;2022-07-01T06:10:01;12.07;;;6.03;;
6452;SDS011;3259;51.080;13.712;2022-07-01T06:12:49;9.65;;;6.53;;
6452;SDS011;3259;51.080;13.712;2022-07-01T06:15:38;10.70;;;7.25;;
6452;SDS011;3259;51.080;13.712;2022-07-01T06:18:26;14.98;;;7.38;;
6452;SDS011;3259;51.080;13.712;2022-07-01T06:21:15;9.02;;;6.63;;
6452;SDS011;3259;51.080;13.712;2022-07-01T06:24:04;10.77;;;7.10;;
6452;SDS011;3259;51.080;13.712;2022-07-01T06:26:54;10.93;;;6.30;;
6452;SDS011;3259;51.080;13.712;2022-07-01T06:29:43;6.75;;;6.15;;
6452;SDS011;3259;51.080;13.712;2022-07-01T06:32:32;9.75;;;6.57;;
6452;SDS011;3259;51.080;13.712;2022-07-01T06:35:20;9.85;;;6.93;;
6452;SDS011;3259;51.080;13.712;2022-07-01T06:38:09;8.35;;;6.60;;
6452;SDS011;3259;51.080;13.712;2022-07-01T06:40:58;9.00;;;7.63;;
6452;SDS011;3259;51.080;13.712;2022-07-01T06:44:05;13.40;;;7.78;;
6452;SDS011;3259;51.080;13.712;2022-07-01T06:46:54;8.30;;;7.25;;
6452;SDS011;3259;51.080;13.712;2022-07-01T06:49:42;14.07;;;7.13;;
6452;SDS011;3259;51.080;13.712;2022-07-01T06:52:31;10.45;;;6.78;;
6452;SDS011;3259;51.080;13.712;2022-07-01T06:55:20;7.57;;;6.15;;
6452;SDS011;3259;51.080;13.712;2022-07-01T06:58:08;7.90;;;7.10;;
6452;SDS011;3259;51.080;13.712;2022-07-01T07:00:58;7.70;;;6.85;;
6452;SDS011;3259;51.080;13.712;2022-07-01T07:03:47;12.77;;;7.85;;
6452;SDS011;3259;51.080;13.712;2022-07-01T07:06:35;8.57;;;7.70;;
6452;SDS011;3259;51.080;13.712;2022-07-01T07:09:24;8.02;;;7.20;;
6452;SDS011;3259;51.080;13.712;2022-07-01T07:12:12;10.30;;;7.18;;
6452;SDS011;3259;51.080;13.712;2022-07-01T07:15:01;7.93;;;6.97;;
6452;SDS011;3259;51.080;13.712;2022-07-01T07:17:51;11.05;;;6.90;;
6452;SDS011;3259;51.080;13.712;2022-07-01T07:20:40;7.60;;;6.90;;
6452;SDS011;3259;51.080;13.712;2022-07-01T07:23:29;8.20;;;6.15;;
6452;SDS011;3259;51.080;13.712;2022-07-01T07:26:18;10.35;;;6.55;;
6452;SDS011;3259;51.080;13.712;2022-07-01T07:29:08;9.43;;;7.32;;
6452;SDS011;3259;51.080;13.712;2022-07-01T07:31:57;7.80;;;6.65;;
6452;SDS011;3259;51.080;13.712;2022-07-01T07:34:47;10.55;;;7.38;;
6452;SDS011;3259;51.080;13.712;2022-07-01T07:37:36;12.50;;;6.45;;
6452;SDS011;3259;51.080;13.712;2022-07-01T07:40:24;6.95;;;6.25;;
6452;SDS011;3259;51.080;13.712;2022-07-01T07:43:13;8.55;;;7.22;;
6452;SDS011;3259;51.080;13.712;2022-07-01T07:46:02;8.48;;;7.05;;
6452;SDS011;3259;51.080;13.712;2022-07-01T07:48:51;9.80;;;6.68;;
6452;SDS011;3259;51.080;13.712;2022-07-01T07:51:41;10.63;;;7.50;;
6452;SDS011;3259;51.080;13.712;2022-07-01T07:54:30;8.73;;;7.13;;
6452;SDS011;3259;51.080;13.712;2022-07-01T07:57:19;12.52;;;7.32;;
6452;SDS011;3259;51.080;13.712;2022-07-01T08:00:08;11.80;;;7.80;;
6452;SDS011;3259;51.080;13.712;2022-07-01T08:02:58;9.48;;;6.75;;
6452;SDS011;3259;51.080;13.712;2022-07-01T08:05:46;7.93;;;6.90;;
6452;SDS011;3259;51.080;13.712;2022-07-01T08:08:37;8.13;;;6.85;;
6452;SDS011;3259;51.080;13.712;2022-07-01T08:11:25;12.73;;;7.28;;
6452;SDS011;3259;51.080;13.712;2022-07-01T08:14:14;9.00;;;6.97;;
6452;SDS011;3259;51.080;13.712;2022-07-01T08:17:09;9.57;;;6.72;;
6452;SDS011;3259;51.080;13.712;2022-07-01T08:19:58;10.88;;;5.70;;
6452;SDS011;3259;51.080;13.712;2022-07-01T08:22:46;9.88;;;6.55;;
6452;SDS011;3259;51.080;13.712;2022-07-01T08:25:36;10.73;;;6.82;;
6452;SDS011;3259;51.080;13.712;2022-07-01T08:28:25;10.68;;;6.88;;
6452;SDS011;3259;51.080;13.712;2022-07-01T08:31:14;11.52;;;7.68;;
6452;SDS011;3259;51.080;13.712;2022-07-01T08:34:03;14.60;;;8.50;;
6452;SDS011;3259;51.080;13.712;2022-07-01T08:36:51;12.55;;;8.27;;
6452;SDS011;3259;51.080;13.712;2022-07-01T08:39:40;11.05;;;8.95;;
6452;SDS011;3259;51.080;13.712;2022-07-01T08:42:30;15.07;;;9.50;;
6452;SDS011;3259;51.080;13.712;2022-07-01T08:45:18;11.15;;;9.20;;
6452;SDS011;3259;51.080;13.712;2022-07-01T08:48:07;14.70;;;9.70;;
6452;SDS011;3259;51.080;13.712;2022-07-01T08:50:56;13.40;;;10.40;;
6452;SDS011;3259;51.080;13.712;2022-07-01T08:53:45;12.43;;;9.75;;
6452;SDS011;3259;51.080;13.712;2022-07-01T08:56:34;11.15;;;8.60;;
6452;SDS011;3259;51.080;13.712;2022-07-01T08:59:29;11.20;;;8.68;;
6452;SDS011;3259;51.080;13.712;2022-07-01T09:02:18;8.73;;;7.85;;
6452;SDS011;3259;51.080;13.712;2022-07-01T09:05:07;11.13;;;8.98;;
6452;SDS011;3259;51.080;13.712;2022-07-01T09:07:58;9.93;;;8.35;;
6452;SDS011;3259;51.080;13.712;2022-07-01T09:10:47;10.68;;;9.55;;
6452;SDS011;3259;51.080;13.712;2022-07-01T09:13:36;23.02;;;9.00;;
6452;SDS011;3259;51.080;13.712;2022-07-01T09:16:32;13.02;;;8.43;;
6452;SDS011;3259;51.080;13.712;2022-07-01T09:19:28;13.98;;;8.48;;
6452;SDS011;3259;51.080;13.712;2022-07-01T09:22:19;10.23;;;8.00;;
6452;SDS011;3259;51.080;13.712;2022-07-01T09:25:11;10.40;;;6.88;;
6452;SDS011;3259;51.080;13.712;2022-07-01T09:28:08;14.48;;;8.15;;
6452;SDS011;3259;51.080;13.712;2022-07-01T09:30:59;15.50;;;8.00;;
6452;SDS011;3259;51.080;13.712;2022-07-01T09:33:52;11.27;;;7.65;;
6452;SDS011;3259;51.080;13.712;2022-07-01T09:36:51;12.30;;;6.57;;
6452;SDS011;3259;51.080;13.712;2022-07-01T09:39:44;12.57;;;6.80;;
6452;SDS011;3259;51.080;13.712;2022-07-01T09:42:37;12.65;;;7.72;;
6452;SDS011;3259;51.080;13.712;2022-07-01T09:48:22;10.80;;;7.68;;
6452;SDS011;3259;51.080;13.712;2022-07-01T09:51:14;14.10;;;7.95;;
6452;SDS011;3259;51.080;13.712;2022-07-01T09:54:03;8.80;;;7.25;;
6452;SDS011;3259;51.080;13.712;2022-07-01T09:56:51;10.38;;;7.05;;
6452;SDS011;3259;51.080;13.712;2022-07-01T09:59:40;6.85;;;6.15;;
6452;SDS011;3259;51.080;13.712;2022-07-01T10:02:28;8.63;;;6.35;;
6452;SDS011;3259;51.080;13.712;2022-07-01T10:05:19;6.53;;;5.90;;
6452;SDS011;3259;51.080;13.712;2022-07-01T10:14:45;7.95;;;6.25;;
6452;SDS011;3259;51.080;13.712;2022-07-01T10:17:34;10.27;;;5.57;;
6452;SDS011;3259;51.080;13.712;2022-07-01T10:20:25;9.50;;;5.18;;
6452;SDS011;3259;51.080;13.712;2022-07-01T10:23:15;9.20;;;6.28;;
6452;SDS011;3259;51.080;13.712;2022-07-01T10:26:05;7.78;;;5.72;;
6452;SDS011;3259;51.080;13.712;2022-07-01T10:28:57;7.78;;;5.75;;
6452;SDS011;3259;51.080;13.712;2022-07-01T10:31:45;9.82;;;5.18;;
6452;SDS011;3259;51.080;13.712;2022-07-01T10:34:35;8.40;;;5.63;;
6452;SDS011;3259;51.080;13.712;2022-07-01T10:37:26;8.82;;;5.13;;
6452;SDS011;3259;51.080;13.712;2022-07-01T10:40:15;6.72;;;4.95;;
6452;SDS011;3259;51.080;13.712;2022-07-01T10:43:04;8.35;;;4.53;;
6452;SDS011;3259;51.080;13.712;2022-07-01T10:46:22;5.28;;;4.72;;
6452;SDS011;3259;51.080;13.712;2022-07-01T10:49:50;7.25;;;4.45;;
6452;SDS011;3259;51.080;13.712;2022-07-01T10:55:48;4.20;;;3.83;;
6452;SDS011;3259;51.080;13.712;2022-07-01T10:58:45;6.18;;;4.40;;
6452;SDS011;3259;51.080;13.712;2022-07-01T11:01:34;4.20;;;3.75;;
6452;SDS011;3259;51.080;13.712;2022-07-01T11:04:24;4.45;;;3.83;;
6452;SDS011;3259;51.080;13.712;2022-07-01T11:07:12;6.82;;;3.67;;
6452;SDS011;3259;51.080;13.712;2022-07-01T11:10:02;4.32;;;2.97;;
6452;SDS011;3259;51.080;13.712;2022-07-01T11:12:52;6.50;;;3.90;;
6452;SDS011;3259;51.080;13.712;2022-07-01T11:15:43;3.47;;;3.15;;
6452;SDS011;3259;51.080;13.712;2022-07-01T11:18:33;2.90;;;2.70;;
6452;SDS011;3259;51.080;13.712;2022-07-01T11:21:22;3.75;;;2.55;;
6452;SDS011;3259;51.080;13.712;2022-07-01T11:24:12;2.58;;;2.40;;
6452;SDS011;3259;51.080;13.712;2022-07-01T11:27:00;1.80;;;1.70;;
6452;SDS011;3259;51.080;13.712;2022-07-01T11:29:55;2.13;;;1.70;;
6452;SDS011;3259;51.080;13.712;2022-07-01T11:32:46;1.60;;;1.48;;
6452;SDS011;3259;51.080;13.712;2022-07-01T11:35:35;1.52;;;1.42;;
6452;SDS011;3259;51.080;13.712;2022-07-01T11:38:44;1.20;;;1.20;;
6452;SDS011;3259;51.080;13.712;2022-07-01T11:41:57;1.58;;;1.48;;
6452;SDS011;3259;51.080;13.712;2022-07-01T11:44:46;3.88;;;2.80;;
6452;SDS011;3259;51.080;13.712;2022-07-01T11:47:35;4.38;;;2.88;;
6452;SDS011;3259;51.080;13.712;2022-07-01T11:50:25;3.17;;;2.97;;
6452;SDS011;3259;51.080;13.712;2022-07-01T11:53:14;3.00;;;2.38;;
6452;SDS011;3259;51.080;13.712;2022-07-01T11:56:03;2.88;;;2.67;;
6452;SDS011;3259;51.080;13.712;2022-07-01T11:58:52;2.35;;;2.25;;
6452;SDS011;3259;51.080;13.712;2022-07-01T12:01:41;2.72;;;2.08;;
6452;SDS011;3259;51.080;13.712;2022-07-01T12:04:30;3.72;;;2.33;;
6452;SDS011;3259;51.080;13.712;2022-07-01T12:07:20;1.50;;;1.50;;
6452;SDS011;3259;51.080;13.712;2022-07-01T12:10:10;3.92;;;2.13;;
6452;SDS011;3259;51.080;13.712;2022-07-01T12:12:58;1.55;;;1.55;;
6452;SDS011;3259;51.080;13.712;2022-07-01T12:15:50;2.53;;;2.35;;
6452;SDS011;3259;51.080;13.712;2022-07-01T12:18:39;2.92;;;1.85;;
6452;SDS011;3259;51.080;13.712;2022-07-01T12:21:30;2.83;;;2.63;;
6452;SDS011;3259;51.080;13.712;2022-07-01T12:24:23;1.80;;;1.80;;
6452;SDS011;3259;51.080;13.712;2022-07-01T12:27:12;2.60;;;2.40;;
6452;SDS011;3259;51.080;13.712;2022-07-01T12:30:01;2.55;;;2.42;;
6452;SDS011;3259;51.080;13.712;2022-07-01T12:32:51;2.63;;;2.42;;
6452;SDS011;3259;51.080;13.712;2022-07-01T12:35:40;2.75;;;2.55;;
6452;SDS011;3259;51.080;13.712;2022-07-01T12:38:29;2.03;;;1.92;;
6452;SDS011;3259;51.080;13.712;2022-07-01T12:41:29;1.65;;;1.55;;
6452;SDS011;3259;51.080;13.712;2022-07-01T12:44:25;1.10;;;1.10;;
6452;SDS011;3259;51.080;13.712;2022-07-01T12:47:17;4.70;;;1.90;;
6452;SDS011;3259;51.080;13.712;2022-07-01T12:50:10;2.83;;;1.83;;
6452;SDS011;3259;51.080;13.712;2022-07-01T12:53:00;1.40;;;1.35;;
6452;SDS011;3259;51.080;13.712;2022-07-01T12:55:51;1.45;;;1.35;;
6452;SDS011;3259;51.080;13.712;2022-07-01T12:58:42;1.10;;;1.10;;
6452;SDS011;3259;51.080;13.712;2022-07-01T13:01:32;1.55;;;1.45;;
6452;SDS011;3259;51.080;13.712;2022-07-01T13:04:24;1.60;;;1.50;;
6452;SDS011;3259;51.080;13.712;2022-07-01T13:07:13;1.63;;;1.52;;
6452;SDS011;3259;51.080;13.712;2022-07-01T13:10:02;1.42;;;1.33;;
6452;SDS011;3259;51.080;13.712;2022-07-01T13:12:51;2.67;;;1.77;;
6452;SDS011;3259;51.080;13.712;2022-07-01T13:15:41;3.75;;;1.63;;
6452;SDS011;3259;51.080;13.712;2022-07-01T13:18:30;0.70;;;0.70;;
6452;SDS011;3259;51.080;13.712;2022-07-01T13:21:19;1.75;;;0.70;;
6452;SDS011;3259;51.080;13.712;2022-07-01T13:24:08;0.60;;;0.60;;
6452;SDS011;3259;51.080;13.712;2022-07-01T13:27:16;0.90;;;0.52;;
6452;SDS011;3259;51.080;13.712;2022-07-01T13:30:06;0.68;;;0.68;;
6452;SDS011;3259;51.080;13.712;2022-07-01T13:32:57;1.42;;;0.80;;
6452;SDS011;3259;51.080;13.712;2022-07-01T13:35:46;4.68;;;1.45;;
6452;SDS011;3259;51.080;13.712;2022-07-01T13:38:35;1.40;;;1.40;;
6452;SDS011;3259;51.080;13.712;2022-07-01T13:41:23;2.22;;;2.03;;
6452;SDS011;3259;51.080;13.712;2022-07-01T13:44:12;1.95;;;1.85;;
6452;SDS011;3259;51.080;13.712;2022-07-01T13:47:00;3.15;;;2.58;;
6452;SDS011;3259;51.080;13.712;2022-07-01T13:49:53;4.40;;;3.30;;
6452;SDS011;3259;51.080;13.712;2022-07-01T13:52:41;2.53;;;2.33;;
6452;SDS011;3259;51.080;13.712;2022-07-01T13:55:32;2.85;;;2.65;;
6452;SDS011;3259;51.080;13.712;2022-07-01T13:58:21;2.42;;;2.22;;
6452;SDS011;3259;51.080;13.712;2022-07-01T14:01:09;1.95;;;1.85;;
6452;SDS011;3259;51.080;13.712;2022-07-01T14:03:58;3.08;;;2.15;;
6452;SDS011;3259;51.080;13.712;2022-07-01T14:06:48;1.92;;;1.75;;
6452;SDS011;3259;51.080;13.712;2022-07-01T14:09:37;2.47;;;2.05;;
6452;SDS011;3259;51.080;13.712;2022-07-01T14:12:27;3.45;;;1.80;;
6452;SDS011;3259;51.080;13.712;2022-07-01T14:15:16;1.80;;;1.80;;
6452;SDS011;3259;51.080;13.712;2022-07-01T14:18:05;2.05;;;1.73;;
6452;SDS011;3259;51.080;13.712;2022-07-01T14:20:54;1.98;;;1.83;;
6452;SDS011;3259;51.080;13.712;2022-07-01T14:23:44;3.10;;;2.55;;
6452;SDS011;3259;51.080;13.712;2022-07-01T14:26:40;1.90;;;1.90;;
6452;SDS011;3259;51.080;13.712;2022-07-01T14:29:28;1.92;;;1.83;;
6452;SDS011;3259;51.080;13.712;2022-07-01T14:32:17;2.60;;;1.48;;
6452;SDS011;3259;51.080;13.712;2022-07-01T14:35:11;1.77;;;1.50;;
6452;SDS011;3259;51.080;13.712;2022-07-01T14:37:59;2.95;;;1.50;;
6452;SDS011;3259;51.080;13.712;2022-07-01T14:40:49;2.55;;;0.85;;
6452;SDS011;3259;51.080;13.712;2022-07-01T14:43:38;1.13;;;0.82;;
6452;SDS011;3259;51.080;13.712;2022-07-01T14:46:29;0.50;;;0.50;;
6452;SDS011;3259;51.080;13.712;2022-07-01T14:49:18;0.30;;;0.30;;
6452;SDS011;3259;51.080;13.712;2022-07-01T14:52:08;1.52;;;0.30;;
6452;SDS011;3259;51.080;13.712;2022-07-01T14:54:58;1.05;;;0.40;;
6452;SDS011;3259;51.080;13.712;2022-07-01T14:57:48;1.65;;;0.50;;
6452;SDS011;3259;51.080;13.712;2022-07-01T15:00:37;3.45;;;0.43;;
6452;SDS011;3259;51.080;13.712;2022-07-01T15:03:30;0.20;;;0.20;;
6452;SDS011;3259;51.080;13.712;2022-07-01T15:06:19;0.35;;;0.10;;
6452;SDS011;3259;51.080;13.712;2022-07-01T15:09:08;0.25;;;0.25;;
6452;SDS011;3259;51.080;13.712;2022-07-01T15:12:00;0.30;;;0.30;;
6452;SDS011;3259;51.080;13.712;2022-07-01T15:14:51;0.80;;;0.40;;
6452;SDS011;3259;51.080;13.712;2022-07-01T15:17:40;0.85;;;0.25;;
6452;SDS011;3259;51.080;13.712;2022-07-01T15:20:33;0.52;;;0.22;;
6452;SDS011;3259;51.080;13.712;2022-07-01T15:23:22;0.73;;;0.10;;
6452;SDS011;3259;51.080;13.712;2022-07-01T15:26:10;0.73;;;0.20;;
6452;SDS011;3259;51.080;13.712;2022-07-01T15:29:03;0.30;;;0.20;;
6452;SDS011;3259;51.080;13.712;2022-07-01T15:31:57;0.10;;;0.10;;
6452;SDS011;3259;51.080;13.712;2022-07-01T15:34:47;1.15;;;0.30;;
6452;SDS011;3259;51.080;13.712;2022-07-01T15:37:35;0.15;;;0.10;;
6452;SDS011;3259;51.080;13.712;2022-07-01T15:40:27;1.08;;;0.52;;
6452;SDS011;3259;51.080;13.712;2022-07-01T15:43:16;0.43;;;0.20;;
6452;SDS011;3259;51.080;13.712;2022-07-01T15:46:05;1.75;;;0.32;;
6452;SDS011;3259;51.080;13.712;2022-07-01T15:49:02;0.20;;;0.20;;
6452;SDS011;3259;51.080;13.712;2022-07-01T15:51:53;0.35;;;0.30;;
6452;SDS011;3259;51.080;13.712;2022-07-01T15:54:42;0.40;;;0.40;;
6452;SDS011;3259;51.080;13.712;2022-07-01T15:57:31;0.45;;;0.45;;
6452;SDS011;3259;51.080;13.712;2022-07-01T16:00:20;1.00;;;0.57;;
6452;SDS011;3259;51.080;13.712;2022-07-01T16:03:09;0.40;;;0.40;;
6452;SDS011;3259;51.080;13.712;2022-07-01T16:06:02;1.10;;;0.50;;
6452;SDS011;3259;51.080;13.712;2022-07-01T16:08:52;1.45;;;0.60;;
6452;SDS011;3259;51.080;13.712;2022-07-01T16:11:43;2.33;;;0.70;;
6452;SDS011;3259;51.080;13.712;2022-07-01T16:14:32;0.63;;;0.55;;
6452;SDS011;3259;51.080;13.712;2022-07-01T16:17:23;1.23;;;0.55;;
6452;SDS011;3259;51.080;13.712;2022-07-01T16:20:22;2.85;;;0.93;;
6452;SDS011;3259;51.080;13.712;2022-07-01T16:23:13;1.40;;;0.80;;
6452;SDS011;3259;51.080;13.712;2022-07-01T16:26:02;0.95;;;0.80;;
6452;SDS011;3259;51.080;13.712;2022-07-01T16:28:51;2.40;;;0.85;;
6452;SDS011;3259;51.080;13.712;2022-07-01T16:31:40;0.95;;;0.65;;
6452;SDS011;3259;51.080;13.712;2022-07-01T16:34:30;0.57;;;0.50;;
6452;SDS011;3259;51.080;13.712;2022-07-01T16:37:18;0.93;;;0.70;;
6452;SDS011;3259;51.080;13.712;2022-07-01T16:40:11;1.48;;;0.60;;
6452;SDS011;3259;51.080;13.712;2022-07-01T16:43:00;1.45;;;0.73;;
6452;SDS011;3259;51.080;13.712;2022-07-01T16:45:50;0.98;;;0.88;;
6452;SDS011;3259;51.080;13.712;2022-07-01T16:48:39;0.95;;;0.85;;
6452;SDS011;3259;51.080;13.712;2022-07-01T16:51:29;2.33;;;0.63;;
6452;SDS011;3259;51.080;13.712;2022-07-01T16:54:19;1.42;;;1.33;;
6452;SDS011;3259;51.080;13.712;2022-07-01T16:57:11;1.00;;;1.00;;
6452;SDS011;3259;51.080;13.712;2022-07-01T17:00:01;1.67;;;1.52;;
6452;SDS011;3259;51.080;13.712;2022-07-01T17:02:51;2.17;;;1.05;;
6452;SDS011;3259;51.080;13.712;2022-07-01T17:05:42;1.00;;;1.00;;
6452;SDS011;3259;51.080;13.712;2022-07-01T17:08:32;2.35;;;1.20;;
6452;SDS011;3259;51.080;13.712;2022-07-01T17:11:22;1.95;;;1.20;;
6452;SDS011;3259;51.080;13.712;2022-07-01T17:14:13;4.05;;;1.00;;
6452;SDS011;3259;51.080;13.712;2022-07-01T17:17:08;0.77;;;0.77;;
6452;SDS011;3259;51.080;13.712;2022-07-01T17:19:57;1.17;;;0.75;;
6452;SDS011;3259;51.080;13.712;2022-07-01T17:22:48;2.05;;;1.02;;
6452;SDS011;3259;51.080;13.712;2022-07-01T17:25:41;1.13;;;1.13;;
6452;SDS011;3259;51.080;13.712;2022-07-01T17:28:40;1.30;;;1.27;;